Time;durP1;ratioP1;P1;durP2;ratioP2;P2;SDS_P1;SDS_P2;PMS_P1;PMS_P2;Temp;Humidity;BMP_temperature;BMP_pressure;BME280_temperature;BME280_humidity;BME280_pressure;Samples;Min_cycle;Max_cycle;Signal;HPM_P1;HPM_P2
2021/01/08 00:01:13;;;;;;;74.95;26.55;;;;;;;0.14;94.28;100105.08;1794784;79;21135;-80
2021/01/08 00:03:40;;;;;;;81.72;26.05;;;;;;;0.17;94.28;100112.71;1795358;79;21178;-80
2021/01/08 00:06:06;;;;;;;72.20;25.48;;;;;;;0.17;94.29;100107.00;1795612;79;21564;-80
2021/01/08 00:08:33;;;;;;;76.65;26.57;;;;;;;0.19;94.29;100107.71;1794748;79;21134;-80
2021/01/08 00:11:00;;;;;;;89.22;31.48;;;;;;;0.21;94.29;100108.42;1795406;79;22123;-80
2021/01/08 00:13:26;;;;;;;81.05;27.87;;;;;;;0.23;94.29;100110.48;1794887;79;21149;-80
2021/01/08 00:15:53;;;;;;;83.95;28.62;;;;;;;0.23;94.30;100113.56;1795523;79;21151;-80
2021/01/08 00:18:19;;;;;;;75.22;25.75;;;;;;;0.24;94.29;100116.09;1795563;79;21742;-80
2021/01/08 00:20:45;;;;;;;72.20;26.17;;;;;;;0.21;94.28;100114.98;1783618;79;21143;-80
2021/01/08 00:23:12;;;;;;;68.33;25.02;;;;;;;0.20;94.29;100108.08;1773564;80;22135;-80
2021/01/08 00:25:38;;;;;;;80.70;26.50;;;;;;;0.19;94.28;100110.33;1772957;80;21149;-80
2021/01/08 00:28:05;;;;;;;77.42;24.85;;;;;;;0.21;94.27;100108.92;1773578;80;21153;-80
2021/01/08 00:30:31;;;;;;;75.12;25.65;;;;;;;0.20;94.25;100113.33;1772949;80;21585;-79
2021/01/08 00:32:58;;;;;;;72.40;27.00;;;;;;;0.18;94.25;100114.36;1773683;80;21164;-80
2021/01/08 00:35:24;;;;;;;74.15;28.25;;;;;;;0.19;94.26;100109.02;1784742;79;22075;-79
2021/01/08 00:37:50;;;;;;;77.53;30.75;;;;;;;0.20;94.26;100103.31;1795260;79;21148;-79
2021/01/08 00:40:16;;;;;;;94.50;36.42;;;;;;;0.17;94.27;100104.38;1795443;79;21480;-79
2021/01/08 00:42:43;;;;;;;80.62;29.30;;;;;;;0.16;94.26;100102.70;1795272;79;21637;-79
2021/01/08 00:45:11;;;;;;;78.17;27.75;;;;;;;0.13;94.26;100102.92;1795665;79;21167;-79
2021/01/08 00:47:37;;;;;;;79.35;29.87;;;;;;;0.15;94.25;100102.32;1796526;79;21183;-79
2021/01/08 00:50:37;;;;;;;74.37;27.32;;;;;;;0.17;94.26;100099.13;1804759;79;21179;-79
2021/01/08 00:53:21;;;;;;;87.02;28.30;;;;;;;0.17;94.25;100100.45;1804909;79;21139;-79
2021/01/08 00:55:47;;;;;;;72.10;26.37;;;;;;;0.17;94.24;100101.75;1785679;79;21186;-79
2021/01/08 00:58:13;;;;;;;71.87;27.27;;;;;;;0.16;94.26;100103.16;1773198;80;21556;-79
2021/01/08 01:00:40;;;;;;;70.92;27.70;;;;;;;0.13;94.25;100109.48;1772839;80;21189;-79
2021/01/08 01:03:06;;;;;;;75.00;28.90;;;;;;;0.14;94.27;100104.57;1802349;79;21552;-79
2021/01/08 01:08:23;;;;;;;88.75;29.30;;;;;;;0.14;94.24;100110.31;1757022;80;21175;-79
2021/01/08 01:10:49;;;;;;;75.12;29.45;;;;;;;0.14;94.24;100111.13;1721924;83;21219;-79
2021/01/08 01:13:15;;;;;;;76.97;27.22;;;;;;;0.14;94.24;100111.13;1740428;82;21535;-79
2021/01/08 01:15:41;;;;;;;79.05;27.60;;;;;;;0.15;94.25;100106.72;1740803;82;21142;-79
2021/01/08 01:18:08;;;;;;;78.87;28.77;;;;;;;0.16;94.23;100114.49;1740601;82;21194;-79
2021/01/08 01:20:34;;;;;;;72.42;27.85;;;;;;;0.14;94.24;100109.00;1740701;82;21190;-79
2021/01/08 01:23:01;;;;;;;78.57;29.80;;;;;;;0.14;94.23;100104.57;1740765;82;21135;-79
2021/01/08 01:25:27;;;;;;;70.87;27.35;;;;;;;0.13;94.23;100102.92;1740410;82;21216;-79
2021/01/08 01:27:53;;;;;;;74.50;27.15;;;;;;;0.13;94.22;100100.30;1740859;81;21182;-79
2021/01/08 01:30:20;;;;;;;66.00;25.50;;;;;;;0.11;94.22;100110.51;1767147;80;21173;-79
2021/01/08 01:32:47;;;;;;;68.15;25.68;;;;;;;0.11;94.20;100112.66;1739244;82;21174;-79
2021/01/08 01:35:13;;;;;;;73.02;28.52;;;;;;;0.10;94.22;100108.39;1738960;82;21125;-79
2021/01/08 01:37:39;;;;;;;71.95;27.30;;;;;;;0.10;94.23;100110.17;1739128;82;21240;-79
2021/01/08 01:40:07;;;;;;;76.28;27.32;;;;;;;0.11;94.22;100110.04;1742120;81;21160;-79
2021/01/08 01:42:33;;;;;;;68.45;26.73;;;;;;;0.12;94.21;100106.95;1709171;83;21223;-79
2021/01/08 01:44:59;;;;;;;85.15;30.92;;;;;;;0.12;94.22;100104.33;1738479;82;21680;-79
2021/01/08 01:47:27;;;;;;;125.02;41.15;;;;;;;0.10;94.19;100106.23;1738982;81;21140;-79
2021/01/08 01:49:53;;;;;;;132.55;44.90;;;;;;;0.09;94.22;100109.33;1739173;82;21266;-79
2021/01/08 01:52:19;;;;;;;138.50;47.30;;;;;;;0.11;94.21;100099.55;1739868;81;21192;-79
2021/01/08 01:54:46;;;;;;;137.07;48.90;;;;;;;0.10;94.22;100101.84;1758405;81;21188;-79
2021/01/08 01:57:12;;;;;;;120.70;44.08;;;;;;;0.11;94.21;100104.80;1758390;81;21136;-79
2021/01/08 01:59:38;;;;;;;115.97;39.70;;;;;;;0.13;94.22;100106.85;1758728;81;21154;-79
2021/01/08 02:02:24;;;;;;;115.12;44.53;;;;;;;0.13;94.22;100100.30;1758485;81;21920;-79
2021/01/08 02:04:50;;;;;;;130.20;43.38;;;;;;;0.14;94.20;100100.64;1757471;81;21588;-79
2021/01/08 02:07:17;;;;;;;138.05;46.53;;;;;;;0.17;94.20;100100.91;1747039;81;21189;-79
2021/01/08 02:09:43;;;;;;;142.22;45.78;;;;;;;0.18;94.22;100102.09;1739160;82;21148;-79
2021/01/08 02:12:09;;;;;;;134.78;49.20;;;;;;;0.18;94.21;100101.25;1708550;83;21712;-79
2021/01/08 02:14:36;;;;;;;133.63;49.15;;;;;;;0.19;94.20;100101.16;1706859;83;21203;-79
2021/01/08 02:17:02;;;;;;;141.80;52.17;;;;;;;0.19;94.21;100099.84;1739978;82;21184;-79
2021/01/08 02:19:45;;;;;;;150.40;54.33;;;;;;;0.20;94.21;100096.75;1771967;80;21145;-79
2021/01/08 02:22:23;;;;;;;147.05;50.92;;;;;;;0.17;94.19;100093.05;1743554;81;21135;-79
2021/01/08 02:25:09;;;;;;;159.27;52.30;;;;;;;0.14;94.21;100097.20;1743589;82;21188;-79
2021/01/08 02:28:21;;;;;;;139.28;48.70;;;;;;;0.15;94.20;100093.14;1810929;78;22732;-79
2021/01/08 02:30:47;;;;;;;129.32;46.08;;;;;;;0.11;94.19;100096.94;1796715;79;21195;-79
2021/01/08 02:33:14;;;;;;;150.72;49.67;;;;;;;0.08;94.21;100093.23;1789034;79;21590;-79
2021/01/08 02:35:41;;;;;;;111.80;39.90;;;;;;;0.07;94.20;100092.86;1796784;79;21143;-79
2021/01/08 02:38:07;;;;;;;107.65;41.55;;;;;;;0.08;94.17;100091.92;1796610;79;21668;-79
2021/01/08 02:40:34;;;;;;;101.50;36.45;;;;;;;0.11;94.19;100089.06;1796399;79;21140;-79
2021/01/08 02:43:02;;;;;;;102.20;39.60;;;;;;;0.10;94.19;100088.73;1796710;79;21159;-79
2021/01/08 02:45:29;;;;;;;112.17;42.90;;;;;;;0.08;94.16;100087.98;1796308;79;21258;-79
2021/01/08 02:47:56;;;;;;;96.30;40.98;;;;;;;0.09;94.19;100087.52;1796843;79;21155;-80
2021/01/08 02:50:22;;;;;;;112.40;43.83;;;;;;;0.09;94.17;100084.89;1796055;79;21624;-80
2021/01/08 02:52:53;;;;;;;102.17;42.50;;;;;;;0.09;94.19;100087.05;1796688;79;21195;-79
2021/01/08 02:55:22;;;;;;;106.22;40.67;;;;;;;0.08;94.18;100086.67;1796627;79;21163;-79
2021/01/08 02:57:49;;;;;;;90.32;36.28;;;;;;;0.08;94.18;100087.98;1796619;79;21258;-79
2021/01/08 03:00:16;;;;;;;89.37;35.75;;;;;;;0.08;94.18;100093.23;1796701;79;21135;-79
2021/01/08 03:02:42;;;;;;;104.27;36.23;;;;;;;0.04;94.19;100087.84;1794077;79;21160;-79
2021/01/08 03:05:10;;;;;;;106.78;40.98;;;;;;;0.07;94.20;100082.88;1757566;80;21124;-79
2021/01/08 03:07:37;;;;;;;92.75;36.95;;;;;;;0.06;94.19;100083.34;1776565;80;21172;-79
2021/01/08 03:10:04;;;;;;;92.67;38.45;;;;;;;0.08;94.18;100084.05;1788300;80;21197;-79
2021/01/08 03:12:31;;;;;;;86.15;35.68;;;;;;;0.09;94.19;100088.36;1785578;80;21190;-79
2021/01/08 03:14:58;;;;;;;88.85;34.80;;;;;;;0.12;94.19;100086.82;1788201;80;21560;-79
2021/01/08 03:17:24;;;;;;;93.37;36.42;;;;;;;0.13;94.21;100087.19;1788302;80;21167;-79
2021/01/08 03:19:50;;;;;;;91.60;35.88;;;;;;;0.14;94.20;100084.91;1787880;80;21667;-79
2021/01/08 03:22:16;;;;;;;94.62;37.35;;;;;;;0.13;94.21;100079.33;1788143;80;21994;-79
2021/01/08 03:24:43;;;;;;;96.67;37.35;;;;;;;0.15;94.20;100089.22;1788089;80;21119;-79
2021/01/08 03:27:09;;;;;;;95.97;37.58;;;;;;;0.15;94.19;100089.22;1783261;80;21184;-79
2021/01/08 03:29:35;;;;;;;83.25;33.15;;;;;;;0.15;94.21;100080.04;1779493;80;21151;-79
2021/01/08 03:32:02;;;;;;;80.00;32.93;;;;;;;0.18;94.21;100089.45;1780127;80;21123;-80
2021/01/08 03:34:28;;;;;;;88.65;33.90;;;;;;;0.17;94.20;100084.72;1779694;80;21192;-79
2021/01/08 03:36:54;;;;;;;91.28;34.25;;;;;;;0.16;94.18;100085.66;1779823;80;21152;-79
2021/01/08 03:39:21;;;;;;;85.12;32.67;;;;;;;0.16;94.19;100085.66;1779384;80;21112;-79
2021/01/08 03:41:47;;;;;;;89.62;31.27;;;;;;;0.17;94.19;100080.78;1779321;80;22007;-79
2021/01/08 03:44:13;;;;;;;91.70;34.60;;;;;;;0.17;94.19;100083.41;1779445;80;21109;-79
2021/01/08 03:46:39;;;;;;;87.57;34.18;;;;;;;0.16;94.18;100079.09;1779161;80;21202;-79
2021/01/08 03:49:06;;;;;;;94.32;34.50;;;;;;;0.17;94.20;100078.63;1779354;80;21148;-79
2021/01/08 03:51:33;;;;;;;79.55;31.85;;;;;;;0.19;94.20;100078.03;1779291;80;21120;-79
2021/01/08 03:53:59;;;;;;;77.32;29.12;;;;;;;0.19;94.21;100073.63;1760111;80;21231;-79
2021/01/08 03:56:26;;;;;;;101.42;34.18;;;;;;;0.19;94.22;100073.63;1749135;80;21981;-79
2021/01/08 03:58:53;;;;;;;86.37;33.33;;;;;;;0.20;94.20;100070.53;1779389;80;21237;-80
2021/01/08 04:01:19;;;;;;;95.57;35.33;;;;;;;0.20;94.19;100072.69;1779520;80;21219;-80
2021/01/08 04:03:46;;;;;;;88.50;33.28;;;;;;;0.22;94.19;100068.16;1779278;80;21160;-80
2021/01/08 04:06:12;;;;;;;84.37;32.93;;;;;;;0.22;94.19;100069.46;1779258;80;21600;-80
2021/01/08 04:08:38;;;;;;;101.18;33.65;;;;;;;0.23;94.17;100071.15;1779125;80;21136;-80
2021/01/08 04:11:04;;;;;;;83.92;33.25;;;;;;;0.22;94.19;100068.16;1755825;80;21187;-80
2021/01/08 04:13:31;;;;;;;85.83;33.18;;;;;;;0.21;94.17;100063.85;1745971;82;21557;-80
2021/01/08 04:15:57;;;;;;;87.90;31.17;;;;;;;0.21;94.18;100063.85;1780650;80;21200;-80
2021/01/08 04:18:23;;;;;;;87.78;33.45;;;;;;;0.22;94.18;100067.31;1780801;80;21113;-80
2021/01/08 04:20:49;;;;;;;82.82;33.13;;;;;;;0.23;94.20;100068.52;1745831;82;21573;-80
2021/01/08 04:23:16;;;;;;;95.30;32.53;;;;;;;0.22;94.19;100069.46;1780647;80;21194;-80
2021/01/08 04:25:42;;;;;;;83.05;32.03;;;;;;;0.23;94.18;100075.08;1780440;80;21151;-80
2021/01/08 04:28:08;;;;;;;77.58;32.93;;;;;;;0.23;94.18;100069.84;1787383;80;21217;-79
2021/01/08 04:30:35;;;;;;;83.17;32.13;;;;;;;0.28;94.20;100075.56;1789058;80;21140;-80
2021/01/08 04:33:01;;;;;;;99.07;33.65;;;;;;;0.29;94.18;100079.02;1788862;80;21175;-80
2021/01/08 04:35:27;;;;;;;92.50;36.03;;;;;;;0.30;94.19;100073.68;1754166;81;21198;-79
2021/01/08 04:37:54;;;;;;;86.45;32.13;;;;;;;0.28;94.19;100076.88;1723808;83;21620;-80
2021/01/08 04:40:20;;;;;;;88.70;32.75;;;;;;;0.28;94.19;100070.31;1695149;84;21177;-80
2021/01/08 04:42:46;;;;;;;86.53;31.82;;;;;;;0.26;94.19;100073.54;1729648;81;21631;-80
2021/01/08 04:45:13;;;;;;;94.50;34.35;;;;;;;0.24;94.19;100068.89;1749311;81;21203;-80
2021/01/08 04:47:39;;;;;;;77.65;31.02;;;;;;;0.24;94.19;100070.20;1722377;83;21282;-80
2021/01/08 04:50:07;;;;;;;89.67;33.05;;;;;;;0.22;94.17;100068.16;1753963;81;21674;-80
2021/01/08 04:52:33;;;;;;;77.78;31.57;;;;;;;0.20;94.17;100067.44;1722388;83;21132;-80
2021/01/08 04:55:00;;;;;;;89.87;30.23;;;;;;;0.17;94.17;100063.73;1724287;81;21172;-79
2021/01/08 04:57:27;;;;;;;84.03;31.55;;;;;;;0.14;94.18;100067.87;1754171;81;21188;-80
2021/01/08 04:59:54;;;;;;;86.47;33.00;;;;;;;0.14;94.17;100070.49;1722139;83;21198;-80
2021/01/08 05:02:21;;;;;;;94.60;34.30;;;;;;;0.14;94.17;100069.18;1754090;80;21616;-79
2021/01/08 05:04:47;;;;;;;81.30;34.27;;;;;;;0.13;94.15;100066.22;1741260;81;21170;-79
2021/01/08 05:07:14;;;;;;;82.25;32.08;;;;;;;0.15;94.15;100071.33;1747287;81;21119;-79
2021/01/08 05:09:40;;;;;;;88.60;32.80;;;;;;;0.14;94.15;100075.73;1753965;81;21158;-79
2021/01/08 05:12:07;;;;;;;99.47;34.55;;;;;;;0.14;94.13;100069.68;1754128;81;22243;-79
2021/01/08 05:14:34;;;;;;;94.42;34.90;;;;;;;0.13;94.14;100071.46;1754152;81;21103;-79
2021/01/08 05:17:00;;;;;;;78.57;31.33;;;;;;;0.11;94.15;100069.88;1753845;81;21163;-79
2021/01/08 05:19:26;;;;;;;105.92;42.05;;;;;;;0.09;94.13;100071.31;1754205;81;21623;-80
2021/01/08 05:21:53;;;;;;;102.00;47.50;;;;;;;0.06;94.14;100072.86;1753746;81;21135;-79
2021/01/08 05:24:23;;;;;;;121.97;51.73;;;;;;;0.06;94.13;100072.86;1753949;81;21226;-80
2021/01/08 05:26:52;;;;;;;100.02;45.12;;;;;;;0.06;94.14;100075.48;1753972;81;21658;-79
2021/01/08 05:29:19;;;;;;;89.13;38.02;;;;;;;0.07;94.13;100071.89;1753675;81;21186;-79
2021/01/08 05:31:47;;;;;;;105.78;42.38;;;;;;;0.05;94.13;100063.31;1753628;81;21615;-79
2021/01/08 05:34:15;;;;;;;93.95;40.17;;;;;;;0.04;94.13;100071.27;1753858;81;21139;-79
2021/01/08 05:36:42;;;;;;;94.32;34.45;;;;;;;0.02;94.12;100074.02;1724792;81;22066;-79
2021/01/08 05:39:08;;;;;;;86.53;33.28;;;;;;;-0.01;94.12;100074.25;1724229;81;21753;-80
2021/01/08 05:41:35;;;;;;;88.92;33.83;;;;;;;-0.04;94.10;100074.01;1754057;81;21195;-80
2021/01/08 05:44:01;;;;;;;82.60;34.65;;;;;;;-0.07;94.11;100074.70;1753972;81;21119;-79
2021/01/08 05:46:34;;;;;;;98.45;34.63;;;;;;;-0.05;94.11;100076.72;1724252;81;21584;-80
2021/01/08 05:49:04;;;;;;;87.33;33.85;;;;;;;-0.02;94.12;100081.73;1724667;81;21203;-79
2021/01/08 05:51:35;;;;;;;92.47;38.08;;;;;;;0.01;94.11;100080.20;1753895;81;21589;-79
2021/01/08 05:54:01;;;;;;;96.00;39.05;;;;;;;0.03;94.10;100079.63;1722624;83;21692;-80
2021/01/08 05:56:34;;;;;;;99.90;40.12;;;;;;;0.03;94.11;100077.02;1753863;81;21172;-80
2021/01/08 05:59:03;;;;;;;107.25;39.88;;;;;;;0.06;94.09;100085.97;1718063;83;21157;-80
2021/01/08 06:01:31;;;;;;;95.67;39.03;;;;;;;0.07;94.11;100079.75;1724069;83;26588;-79
2021/01/08 06:03:58;;;;;;;91.12;34.40;;;;;;;0.09;94.08;100084.42;1695056;84;21192;-80
2021/01/08 06:06:24;;;;;;;94.70;38.38;;;;;;;0.04;94.11;100082.59;1665722;84;21204;-80
2021/01/08 06:08:53;;;;;;;92.53;35.03;;;;;;;0.03;94.12;100079.63;1728929;81;21224;-80
2021/01/08 06:11:28;;;;;;;95.97;37.15;;;;;;;0.06;94.11;100083.34;1755684;81;22373;-79
2021/01/08 06:13:56;;;;;;;95.72;37.65;;;;;;;0.06;94.10;100079.88;1759850;81;21573;-79
2021/01/08 06:16:22;;;;;;;96.45;38.83;;;;;;;0.05;94.10;100084.28;1759934;80;21160;-80
2021/01/08 06:18:50;;;;;;;97.12;38.02;;;;;;;0.02;94.08;100081.88;1759929;81;21140;-79
2021/01/08 06:21:18;;;;;;;89.05;35.65;;;;;;;0.00;94.10;100079.86;1760016;80;21655;-80
2021/01/08 06:23:46;;;;;;;84.80;35.10;;;;;;;-0.01;94.09;100084.73;1759981;81;21160;-80
2021/01/08 06:26:16;;;;;;;105.85;39.58;;;;;;;-0.01;94.09;100079.48;1759880;81;22076;-79
2021/01/08 06:28:46;;;;;;;98.95;38.83;;;;;;;-0.03;94.08;100086.61;1737806;81;21192;-79
2021/01/08 06:31:24;;;;;;;98.07;37.70;;;;;;;-0.04;94.07;100084.95;1746032;82;21112;-80
2021/01/08 06:33:59;;;;;;;98.45;39.30;;;;;;;-0.02;94.08;100093.53;1780726;80;21176;-79
2021/01/08 06:36:30;;;;;;;106.05;43.23;;;;;;;-0.04;94.08;100095.44;1758033;80;21147;-79
2021/01/08 06:39:04;;;;;;;109.35;43.63;;;;;;;-0.04;94.06;100095.44;1773254;79;21258;-80
2021/01/08 06:41:30;;;;;;;120.60;43.50;;;;;;;-0.01;94.06;100100.45;1787450;80;21568;-79
2021/01/08 06:44:02;;;;;;;107.00;42.03;;;;;;;-0.01;94.06;100097.84;1786960;80;21131;-80
2021/01/08 06:46:39;;;;;;;102.15;40.85;;;;;;;0.02;94.05;100103.33;1787361;80;21215;-79
2021/01/08 06:49:10;;;;;;;104.07;42.10;;;;;;;0.03;94.05;100103.23;1787367;80;21699;-80
2021/01/08 06:51:39;;;;;;;105.90;40.10;;;;;;;0.01;94.05;100101.17;1783511;80;21210;-80
2021/01/08 06:54:08;;;;;;;93.30;38.90;;;;;;;0.00;94.03;100112.63;1746129;82;21119;-79
2021/01/08 06:56:40;;;;;;;113.62;43.68;;;;;;;0.00;94.04;100110.00;1780617;79;21125;-79
2021/01/08 06:59:10;;;;;;;95.57;38.70;;;;;;;0.02;94.02;100113.34;1780663;80;21231;-79
2021/01/08 07:02:15;;;;;;;109.37;39.23;;;;;;;0.03;94.03;100121.58;1746115;81;21163;-80
2021/01/08 07:04:42;;;;;;;111.60;39.92;;;;;;;0.05;94.01;100126.69;1783015;80;22065;-80
2021/01/08 07:07:25;;;;;;;103.17;37.98;;;;;;;0.05;94.03;100118.36;1786376;79;21730;-79
2021/01/08 07:09:52;;;;;;;111.47;43.23;;;;;;;0.01;94.05;100122.14;1787184;79;21159;-79
2021/01/08 07:12:24;;;;;;;128.57;50.63;;;;;;;-0.04;94.02;100126.42;1733629;80;21175;-79
2021/01/08 07:14:51;;;;;;;146.05;52.65;;;;;;;-0.04;94.04;100132.13;1780769;80;21165;-79
2021/01/08 07:17:20;;;;;;;131.50;48.33;;;;;;;-0.07;94.02;100138.91;1747810;80;21201;-80
2021/01/08 07:19:46;;;;;;;120.28;45.10;;;;;;;-0.09;94.00;100139.47;1714197;81;21212;-79
2021/01/08 07:22:18;;;;;;;117.13;42.80;;;;;;;-0.10;94.01;100141.72;1787452;80;21719;-79
2021/01/08 07:24:47;;;;;;;114.90;42.67;;;;;;;-0.11;94.01;100144.00;1787845;80;21223;-79
2021/01/08 07:27:22;;;;;;;109.70;41.45;;;;;;;-0.09;94.00;100140.78;1787689;80;21170;-79
2021/01/08 07:29:57;;;;;;;118.67;43.83;;;;;;;-0.09;94.01;100148.17;1787405;80;21207;-79
2021/01/08 07:32:43;;;;;;;118.77;42.40;;;;;;;-0.07;93.99;100146.77;1787334;80;21160;-79
2021/01/08 07:35:29;;;;;;;105.20;40.12;;;;;;;-0.06;94.01;100149.27;1787623;79;21163;-79
2021/01/08 07:38:07;;;;;;;107.63;42.40;;;;;;;-0.07;94.01;100151.51;1787811;80;21125;-79
2021/01/08 07:40:50;;;;;;;118.17;45.47;;;;;;;-0.12;94.03;100151.48;1787987;80;21136;-79
2021/01/08 07:43:17;;;;;;;133.93;53.02;;;;;;;-0.13;94.05;100160.28;1786709;79;21472;-78
2021/01/08 07:45:58;;;;;;;126.30;47.17;;;;;;;-0.13;94.06;100162.91;1786720;80;21148;-79
2021/01/08 07:48:34;;;;;;;128.70;49.30;;;;;;;-0.10;94.04;100161.38;1779766;79;21132;-79
2021/01/08 07:51:05;;;;;;;114.80;45.10;;;;;;;-0.06;94.01;100163.67;1748240;81;21191;-79
2021/01/08 07:53:46;;;;;;;111.62;47.33;;;;;;;0.01;94.02;100162.77;1748348;82;21581;-78
2021/01/08 07:56:24;;;;;;;118.95;47.98;;;;;;;0.06;93.99;100161.14;1747438;81;21594;-78
2021/01/08 07:59:05;;;;;;;143.22;58.68;;;;;;;0.10;93.97;100167.38;1770353;80;21172;-78
2021/01/08 08:01:34;;;;;;;127.95;51.48;;;;;;;0.13;93.98;100170.23;1779418;80;21137;-79
2021/01/08 08:04:07;;;;;;;120.72;46.33;;;;;;;0.11;94.00;100170.34;1779097;80;21184;-79
2021/01/08 08:09:20;;;;;;;126.10;50.43;;;;;;;0.22;93.99;100176.13;1856634;77;22321;-79
2021/01/08 08:11:48;;;;;;;124.82;48.83;;;;;;;0.17;93.97;100175.16;1836523;78;21156;-79
2021/01/08 08:14:16;;;;;;;116.12;45.08;;;;;;;0.20;93.97;100177.56;1836359;78;21182;-79
2021/01/08 08:16:42;;;;;;;122.60;47.17;;;;;;;0.20;93.97;100180.19;1836324;78;21528;-79
2021/01/08 08:19:10;;;;;;;110.35;45.78;;;;;;;0.25;93.96;100180.67;1817981;78;21170;-79
2021/01/08 08:21:47;;;;;;;117.03;42.65;;;;;;;0.27;93.96;100184.05;1805457;78;21170;-79
2021/01/08 08:24:16;;;;;;;112.92;42.85;;;;;;;0.28;93.96;100180.95;1805707;78;21150;-79
2021/01/08 08:26:43;;;;;;;107.37;42.78;;;;;;;0.28;93.95;100179.14;1821097;78;22208;-79
2021/01/08 08:29:13;;;;;;;98.47;40.88;;;;;;;0.28;93.96;100180.45;1836357;78;21627;-80
2021/01/08 08:31:46;;;;;;;117.33;44.45;;;;;;;0.30;93.95;100181.20;1836021;78;21146;-79
2021/01/08 08:34:29;;;;;;;113.77;47.58;;;;;;;0.31;93.94;100179.41;1836074;78;21162;-79
2021/01/08 08:37:08;;;;;;;132.57;53.78;;;;;;;0.35;93.95;100176.44;1815327;77;22778;-79
2021/01/08 08:39:35;;;;;;;126.25;48.10;;;;;;;0.29;93.94;100176.89;1788075;80;21588;-80
2021/01/08 08:42:01;;;;;;;112.68;44.88;;;;;;;0.32;93.95;100177.98;1787584;80;21259;-80
2021/01/08 08:44:27;;;;;;;109.37;44.45;;;;;;;0.35;93.94;100180.38;1787911;80;21209;-80
2021/01/08 08:46:55;;;;;;;123.00;48.98;;;;;;;0.37;93.94;100183.74;1780907;80;21151;-79
2021/01/08 08:49:34;;;;;;;174.77;85.07;;;;;;;0.37;93.93;100185.05;1760066;80;21654;-80
2021/01/08 08:52:02;;;;;;;130.97;59.00;;;;;;;0.39;93.93;100182.30;1762907;80;21138;-79
2021/01/08 08:54:28;;;;;;;116.70;49.15;;;;;;;0.45;93.93;100188.44;1785391;78;21192;-79
2021/01/08 08:56:59;;;;;;;112.88;43.42;;;;;;;0.48;93.93;100190.36;1764646;80;21151;-79
2021/01/08 08:59:42;;;;;;;102.02;43.33;;;;;;;0.52;93.93;100190.14;1769880;80;21210;-80
2021/01/08 09:02:09;;;;;;;100.27;43.35;;;;;;;0.56;93.90;100195.53;1767043;80;21245;-79
2021/01/08 09:04:39;;;;;;;103.27;45.95;;;;;;;0.60;93.91;100195.67;1781284;80;21128;-79
2021/01/08 09:07:14;;;;;;;127.00;51.98;;;;;;;0.67;93.92;100197.71;1748624;80;22221;-78
2021/01/08 09:09:41;;;;;;;124.92;54.30;;;;;;;0.73;93.91;100198.59;1753018;81;21143;-79
2021/01/08 09:12:42;;;;;;;111.05;46.75;;;;;;;0.75;93.91;100194.53;1752194;81;21192;-79
2021/01/08 09:15:30;;;;;;;114.92;46.37;;;;;;;0.77;93.92;100190.86;1735398;80;21615;-79
2021/01/08 09:18:31;;;;;;;188.95;72.92;;;;;;;0.79;93.92;100193.36;1729416;81;21170;-79
2021/01/08 09:21:05;;;;;;;208.55;82.33;;;;;;;0.79;93.92;100190.73;1747282;81;21207;-79
2021/01/08 09:23:35;;;;;;;170.20;65.78;;;;;;;0.79;93.91;100190.27;1743578;81;21176;-80
2021/01/08 09:26:03;;;;;;;;;;;;;;;0.81;93.91;100191.48;1760602;81;21835;-80
2021/01/08 09:28:42;;;;;;;120.90;46.05;;;;;;;0.84;93.92;100186.00;1757920;81;20532;-80
2021/01/08 09:31:08;;;;;;;114.70;46.83;;;;;;;0.79;93.92;100182.39;1758114;81;21159;-81
2021/01/08 09:33:35;;;;;;;120.70;45.70;;;;;;;0.83;93.93;100192.19;1757814;81;21573;-80
2021/01/08 09:36:01;;;;;;;103.87;43.30;;;;;;;0.88;93.94;100189.57;1731808;81;21176;-81
2021/01/08 09:38:29;;;;;;;113.37;44.20;;;;;;;0.88;93.92;100188.77;1755553;81;21197;-79
2021/01/08 09:40:57;;;;;;;110.72;44.13;;;;;;;0.88;93.95;100189.57;1745807;81;21806;-79
2021/01/08 09:43:23;;;;;;;109.83;43.80;;;;;;;0.96;93.95;100185.91;1761023;81;21128;-79
2021/01/08 09:46:03;;;;;;;103.53;43.83;;;;;;;1.02;93.94;100189.05;1750304;80;21183;-79
2021/01/08 09:48:30;;;;;;;115.17;44.30;;;;;;;1.02;93.96;100191.20;1739908;81;25144;-79
2021/01/08 09:51:05;;;;;;;114.17;48.48;;;;;;;1.07;93.95;100195.61;1694155;83;21210;-80
2021/01/08 09:53:34;;;;;;;116.03;48.13;;;;;;;1.06;93.93;100189.15;1693536;83;21182;-80
2021/01/08 09:56:16;;;;;;;115.35;45.05;;;;;;;1.07;93.94;100187.73;1699980;83;21219;-80
2021/01/08 09:58:43;;;;;;;123.97;46.77;;;;;;;1.10;93.92;100183.56;1710504;83;22645;-80
2021/01/08 10:01:12;;;;;;;118.13;47.30;;;;;;;1.07;93.93;100182.48;1701042;83;21695;-80
2021/01/08 10:03:39;;;;;;;133.45;48.23;;;;;;;1.12;93.92;100184.77;1681291;84;21206;-80
2021/01/08 10:06:14;;;;;;;134.37;52.58;;;;;;;1.16;93.93;100184.41;1682060;85;21194;-80
2021/01/08 10:08:40;;;;;;;131.18;52.85;;;;;;;1.16;93.95;100183.09;1682259;85;21176;-80
2021/01/08 10:11:06;;;;;;;157.40;61.02;;;;;;;1.18;93.96;100182.52;1669104;86;21599;-80
2021/01/08 10:13:34;;;;;;;171.05;68.62;;;;;;;1.16;93.98;100187.03;1669486;85;21172;-80
2021/01/08 10:16:08;;;;;;;189.47;79.72;;;;;;;1.12;93.99;100188.24;1669210;86;21206;-79
2021/01/08 10:18:38;;;;;;;178.78;76.17;;;;;;;1.16;93.99;100183.09;1670951;84;21203;-80
2021/01/08 10:21:07;;;;;;;159.80;68.70;;;;;;;1.10;93.94;100182.25;1691180;83;21175;-80
2021/01/08 10:23:42;;;;;;;169.93;64.12;;;;;;;1.07;93.91;100181.64;1685040;84;21553;-80
2021/01/08 10:26:14;;;;;;;162.53;64.72;;;;;;;1.05;93.93;100185.71;1693357;83;21228;-79
2021/01/08 10:28:54;;;;;;;158.10;61.88;;;;;;;1.09;93.93;100183.19;1682846;84;21235;-79
2021/01/08 10:31:22;;;;;;;163.72;64.58;;;;;;;1.19;93.93;100184.20;1686835;84;21567;-79
2021/01/08 10:33:48;;;;;;;124.90;47.38;;;;;;;1.24;93.93;100186.45;1683862;84;21231;-79
2021/01/08 10:36:15;;;;;;;167.03;65.87;;;;;;;1.28;93.93;100183.49;1681510;84;21226;-78
2021/01/08 10:38:44;;;;;;;166.90;65.62;;;;;;;1.35;93.93;100182.07;1687415;84;21612;-79
2021/01/08 10:41:17;;;;;;;132.35;53.02;;;;;;;1.45;93.95;100180.41;1681261;84;21707;-78
2021/01/08 10:43:44;;;;;;;133.70;53.17;;;;;;;1.54;93.95;100184.14;1692075;84;21143;-78
2021/01/08 10:46:12;;;;;;;114.77;48.95;;;;;;;1.54;93.96;100179.36;1702855;84;21592;-79
2021/01/08 10:48:38;;;;;;;121.00;48.35;;;;;;;1.57;93.97;100183.90;1702863;84;21760;-79
2021/01/08 10:51:04;;;;;;;142.43;59.20;;;;;;;1.64;93.95;100175.06;1682811;84;21204;-79
2021/01/08 10:53:30;;;;;;;155.22;59.45;;;;;;;1.62;93.94;100175.67;1692860;84;21123;-79
2021/01/08 10:55:57;;;;;;;165.68;67.35;;;;;;;1.62;93.93;100170.41;1692523;84;21174;-79
2021/01/08 10:58:23;;;;;;;148.07;61.68;;;;;;;1.62;93.90;100170.41;1693229;84;21222;-79
2021/01/08 11:00:50;;;;;;;119.95;48.25;;;;;;;1.64;93.91;100168.02;1693266;83;21219;-79
2021/01/08 11:03:16;;;;;;;101.33;43.50;;;;;;;1.66;93.90;100169.20;1668922;86;21192;-79
2021/01/08 11:05:43;;;;;;;94.83;41.77;;;;;;;1.62;93.90;100165.97;1693314;84;21146;-78
2021/01/08 11:08:10;;;;;;;111.10;50.20;;;;;;;1.62;93.88;100159.91;1693127;84;21203;-78
2021/01/08 11:10:37;;;;;;;140.47;60.17;;;;;;;1.61;93.88;100159.53;1715397;83;21156;-79
2021/01/08 11:13:04;;;;;;;158.22;73.80;;;;;;;1.67;93.91;100165.63;1712276;83;21259;-77
2021/01/08 11:15:31;;;;;;;140.28;64.47;;;;;;;1.77;93.92;100174.45;1708473;83;21200;-78
2021/01/08 11:17:57;;;;;;;110.40;47.83;;;;;;;1.81;93.92;100168.02;1672079;84;21639;-76
2021/01/08 11:20:24;;;;;;;106.87;48.65;;;;;;;1.83;93.93;100170.06;1680307;84;21142;-76
2021/01/08 11:22:50;;;;;;;110.55;46.08;;;;;;;1.79;93.92;100173.88;1698616;84;21163;-76
2021/01/08 11:25:17;;;;;;;104.47;42.17;;;;;;;1.77;93.92;100171.83;1695478;83;21179;-76
2021/01/08 11:27:43;;;;;;;128.97;59.60;;;;;;;1.79;93.92;100173.88;1687349;84;21664;-77